HEBA/HBE METAR and TAF weather

Enter ICAO airport designator
Station Type Date Time Source
HEBA METAR 2021/05/12 23:00 UTC NOAA

HEBA 122300Z 00000KT CAVOK 15/12 Q1012 NOSIG


Station Type Date Time Source
HEBA Decoded METAR 2021/05/12 23:00 UTC NOAA

Alexandria Borg El Arab, Egypt (HEBA) 31-31N 030-10E
May 12, 2021 - 07:00 PM EDT / 2021.05.12 2300 UTC
Wind: Calm:0
Visibility: greater than 7 mile(s):0
Temperature: 59 F (15 C)
Dew Point: 53 F (12 C)
Relative Humidity: 82%
Pressure (altimeter): 29.88 in. Hg (1012 hPa)
ob: HEBA 122300Z 00000KT CAVOK 15/12 Q1012 NOSIG
cycle: 23

Station Type Date Time Source
HEBA TAF 2021/05/12 18:45 UTC NOAA

TAF HEBA 121700Z 1218/1324 34010KT CAVOK
TEMPO 1300/1306 VRB03KT 4000 BR NSC

Example: see airport list